Time;durP1;ratioP1;P1;durP2;ratioP2;P2;SDS_P1;SDS_P2;PMS_P1;PMS_P2;Temp;Humidity;BMP_temperature;BMP_pressure;BME280_temperature;BME280_humidity;BME280_pressure;Samples;Min_cycle;Max_cycle;Signal;HPM_P1;HPM_P2
2023/02/01 00:02:32;;;;;;;16.20;3.60;;;;;;;2.50;100.00;99625.45;213037;1291;138350;-88
2023/02/01 00:08:39;;;;;;;11.20;2.20;;;;;;;2.51;100.00;99619.91;212975;1297;139089;-89
2023/02/01 00:14:40;;;;;;;15.00;2.90;;;;;;;2.49;100.00;99620.38;213361;1294;138808;-91
2023/02/01 00:20:41;;;;;;;12.90;2.30;;;;;;;2.50;100.00;99622.67;212643;1291;138649;-88
2023/02/01 00:26:48;;;;;;;15.40;3.90;;;;;;;2.52;100.00;99631.56;212973;1297;138820;-87
2023/02/01 00:38:44;;;;;;;20.50;4.20;;;;;;;2.54;100.00;99620.85;212679;1292;139001;-90
2023/02/01 00:50:46;;;;;;;;;;;;;;;;;;;;;
2023/02/01 00:56:47;;;;;;;;;;;;;;;;;;;;;
2023/02/01 01:02:40;;;;;;;16.10;2.30;;;;;;;2.55;100.00;99649.50;213483;1291;138322;-89
2023/02/01 01:08:41;;;;;;;12.50;2.70;;;;;;;2.61;100.00;99652.00;213020;1294;138551;-89
2023/02/01 01:14:43;;;;;;;17.90;3.00;;;;;;;2.67;100.00;99655.67;213556;1294;138386;-90
2023/02/01 01:20:44;;;;;;;11.40;2.10;;;;;;;2.72;100.00;99646.96;213118;1291;138572;-88
2023/02/01 01:26:46;;;;;;;15.00;3.30;;;;;;;2.78;100.00;99652.67;213065;1296;138728;-89
2023/02/01 01:32:48;;;;;;;20.80;2.10;;;;;;;2.84;100.00;99648.56;213929;1291;138315;-90
2023/02/01 01:38:50;;;;;;;14.10;2.60;;;;;;;2.88;100.00;99649.25;212781;1293;138491;-88
2023/02/01 01:45:14;;;;;;;12.60;2.40;;;;;;;2.93;100.00;99651.10;213462;1291;138884;-86
2023/02/01 01:50:56;;;;;;;15.90;3.40;;;;;;;2.98;100.00;99649.70;212643;1297;138362;-86
2023/02/01 01:56:51;;;;;;;17.60;2.20;;;;;;;3.02;100.00;99651.65;212868;1294;138542;-88
2023/02/01 02:02:53;;;;;;;13.50;2.40;;;;;;;3.05;100.00;99642.35;213412;1294;138379;-86
2023/02/01 02:08:48;;;;;;;;;;;;;;;;;;;;;
2023/02/01 02:14:49;;;;;;;11.80;3.30;;;;;;;3.15;100.00;99638.50;213419;1292;138348;-87
2023/02/01 02:21:08;;;;;;;16.30;4.00;;;;;;;3.17;100.00;99635.00;212631;1296;138370;-89
2023/02/01 02:27:22;;;;;;;15.30;1.90;;;;;;;3.18;100.00;99634.17;212550;1295;138739;-85
2023/02/01 02:33:08;;;;;;;14.60;2.50;;;;;;;3.17;100.00;99640.66;213268;1294;138681;-87
2023/02/01 02:39:04;;;;;;;;;;;;;;;;;;;;;
2023/02/01 03:09:23;;;;;;;23.50;3.60;;;;;;;2.91;100.00;99634.48;213049;1294;139153;-88
2023/02/01 03:15:26;;;;;;;17.60;2.60;;;;;;;2.86;100.00;99629.23;214066;1292;137276;-86
2023/02/01 03:21:20;;;;;;;17.00;2.40;;;;;;;2.83;100.00;99622.70;213564;1291;139120;-89
2023/02/01 03:27:20;;;;;;;;;;;;;;;;;;;;;
2023/02/01 03:33:23;;;;;;;15.50;2.40;;;;;;;2.81;100.00;99616.05;212859;1293;138712;-87
2023/02/01 03:39:36;;;;;;;27.80;4.10;;;;;;;2.82;100.00;99606.44;212803;1293;138979;-91
2023/02/01 03:45:51;;;;;;;16.10;4.50;;;;;;;2.82;100.00;99613.50;213814;1295;138363;-90
2023/02/01 03:51:43;;;;;;;;;;;;;;;;;;;;;
2023/02/01 03:57:45;;;;;;;26.10;4.80;;;;;;;2.77;100.00;99608.70;213315;1294;138908;-84
2023/02/01 04:03:39;;;;;;;11.90;2.30;;;;;;;2.78;100.00;99610.42;213325;1297;138677;-89
2023/02/01 04:09:32;;;;;;;;;;;;;;;;;;;;;
2023/02/01 04:15:34;;;;;;;14.40;2.30;;;;;;;2.81;100.00;99593.30;213400;1295;138469;-89
2023/02/01 04:27:38;;;;;;;15.80;3.40;;;;;;;2.81;100.00;99600.57;213086;1291;138807;-86
2023/02/01 04:33:39;;;;;;;13.10;2.30;;;;;;;2.83;100.00;99603.76;213579;1294;139154;-85
2023/02/01 04:39:40;;;;;;;15.40;2.50;;;;;;;2.84;100.00;99604.41;212801;1295;138684;-86
2023/02/01 04:45:41;;;;;;;;;;;;;;;;;;;;;
2023/02/01 04:51:43;;;;;;;11.10;2.40;;;;;;;2.88;100.00;99602.02;212786;1291;138330;-87
2023/02/01 04:57:43;;;;;;;19.10;4.40;;;;;;;2.91;100.00;99600.56;212594;1296;138830;-87
2023/02/01 05:03:44;;;;;;;11.80;2.00;;;;;;;2.95;100.00;99593.67;213147;1293;138389;-87
2023/02/01 05:09:45;;;;;;;13.60;2.30;;;;;;;3.01;100.00;99595.25;212608;1295;138806;-85
2023/02/01 05:15:46;;;;;;;14.30;2.50;;;;;;;3.07;100.00;99591.99;213195;1295;138546;-88
2023/02/01 05:21:48;;;;;;;21.10;4.00;;;;;;;3.09;100.00;99588.48;213174;1294;138437;-88
2023/02/01 05:27:49;;;;;;;13.30;2.50;;;;;;;3.11;100.00;99591.72;213076;1297;138530;-85
2023/02/01 05:33:51;;;;;;;;;;;;;;;;;;;;;
2023/02/01 05:39:43;;;;;;;15.10;2.10;;;;;;;3.23;100.00;99596.77;212727;1295;138304;-86
2023/02/01 05:45:45;;;;;;;13.70;2.50;;;;;;;3.25;100.00;99598.71;213325;1293;138346;-86
2023/02/01 05:51:45;;;;;;;18.60;3.30;;;;;;;3.30;100.00;99604.27;213183;1295;138365;-87
2023/02/01 05:57:47;;;;;;;16.00;2.70;;;;;;;3.35;100.00;99617.61;212791;1297;138759;-86
2023/02/01 06:03:47;;;;;;;16.20;2.50;;;;;;;3.38;100.00;99612.95;213363;1291;138404;-89
2023/02/01 06:09:48;;;;;;;14.60;2.90;;;;;;;3.40;100.00;99608.42;213020;1296;138652;-86
2023/02/01 06:15:47;;;;;;;;;;;;;;;;;;;;;
2023/02/01 06:21:53;;;;;;;17.70;3.00;;;;;;;3.45;100.00;99617.40;213386;1292;139037;-84
2023/02/01 06:27:44;;;;;;;;;;;;;;;;;;;;;
2023/02/01 06:33:35;;;;;;;14.60;2.50;;;;;;;3.52;100.00;99613.08;213269;1291;138443;-86
2023/02/01 06:39:15;;;;;;;;;;;;;;;;;;;;;
2023/02/01 06:44:47;;;;;;;17.00;3.70;;;;;;;3.56;100.00;99610.30;213428;1296;140246;-87
2023/02/01 06:50:45;;;;;;;19.60;3.50;;;;;;;3.58;100.00;99614.40;212756;1293;138609;-86
2023/02/01 06:56:33;;;;;;;;;;;;;;;3.62;100.00;99621.20;213201;1292;138782;-89
2023/02/01 07:02:08;;;;;;;;;;;;;;;;;;;;;
2023/02/01 07:08:10;;;;;;;26.50;6.20;;;;;;;3.66;100.00;99620.30;212934;1294;139052;-86
2023/02/01 07:14:04;;;;;;;;;;;;;;;;;;;;;
2023/02/01 07:19:49;;;;;;;;;;;;;;;;;;;;;
2023/02/01 07:25:34;;;;;;;18.70;3.50;;;;;;;3.69;100.00;99623.63;213319;1292;138584;-87
2023/02/01 07:37:27;;;;;;;;;;;;;;;;;;;;;
2023/02/01 07:43:07;;;;;;;;;;;;;;;;;;;;;
2023/02/01 07:49:07;;;;;;;21.10;3.50;;;;;;;3.73;100.00;99629.80;212955;1295;138828;-85
2023/02/01 07:55:01;;;;;;;27.10;4.00;;;;;;;3.73;100.00;99627.57;213409;1294;139283;-89
2023/02/01 08:06:45;;;;;;;;;;;;;;;;;;;;;
2023/02/01 08:12:31;;;;;;;17.10;4.10;;;;;;;3.78;100.00;99623.00;213454;1298;139125;-87
2023/02/01 08:18:26;;;;;;;;;;;;;;;;;;;;;
2023/02/01 08:24:21;;;;;;;;;;;;;;;;;;;;;
2023/02/01 08:30:08;;;;;;;;;;;;;;;;;;;;;
2023/02/01 08:36:02;;;;;;;27.70;4.40;;;;;;;3.95;100.00;99613.39;213380;1295;138799;-86
2023/02/01 10:47:59;;;;;;;10.80;3.60;;;;;;;3.73;100.00;99553.84;215382;1292;113746;-86
2023/02/01 10:53:59;;;;;;;16.20;4.70;;;;;;;3.74;100.00;99549.52;215171;1293;112763;-86
2023/02/01 11:06:10;;;;;;;15.80;4.40;;;;;;;3.88;100.00;99541.83;215158;1292;109846;-90
2023/02/01 11:12:12;;;;;;;12.90;4.20;;;;;;;3.93;100.00;99544.84;215208;1293;137942;-86
2023/02/01 11:18:15;;;;;;;14.40;4.60;;;;;;;3.97;100.00;99545.70;214567;1291;139374;-87
2023/02/01 11:24:15;;;;;;;;;;;;;;;;;;;;;
2023/02/01 11:30:21;;;;;;;11.00;4.40;;;;;;;4.01;100.00;99539.58;214804;1292;140174;-90
2023/02/01 11:36:20;;;;;;;14.20;5.10;;;;;;;4.00;100.00;99540.33;214675;1296;139260;-87
2023/02/01 11:42:25;;;;;;;10.70;3.80;;;;;;;3.99;100.00;99531.67;215379;1296;109888;-88
2023/02/01 11:48:28;;;;;;;;;;;;;;;;;;;;;
2023/02/01 11:54:26;;;;;;;;;;;;;;;;;;;;;
2023/02/01 12:00:38;;;;;;;13.30;4.00;;;;;;;4.04;100.00;99528.34;214637;1296;139154;-88
2023/02/01 12:07:01;;;;;;;13.20;5.00;;;;;;;4.05;100.00;99530.26;214646;1293;139019;-86
2023/02/01 12:13:10;;;;;;;13.20;6.50;;;;;;;4.03;100.00;99532.15;215300;1290;110895;-87
2023/02/01 12:19:21;;;;;;;13.00;4.50;;;;;;;4.04;100.00;99528.92;214682;1297;138577;-86
2023/02/01 12:25:34;;;;;;;11.00;4.10;;;;;;;4.04;100.00;99529.14;215225;1295;110499;-88
2023/02/01 12:31:54;;;;;;;;;;;;;;;;;;;;;
2023/02/01 12:37:58;;;;;;;10.00;3.90;;;;;;;4.02;100.00;99527.14;214577;1296;138609;-88
2023/02/01 12:44:06;;;;;;;;;;;;;;;;;;;;;
2023/02/01 12:50:22;;;;;;;;;;;;;;;;;;;;;
2023/02/01 12:56:38;;;;;;;12.40;4.40;;;;;;;4.11;100.00;99513.76;214687;1293;138366;-88
2023/02/01 13:02:43;;;;;;;;;;;;;;;;;;;;;
2023/02/01 13:08:53;;;;;;;;;;;;;;;;;;;;;
2023/02/01 13:15:08;;;;;;;17.20;4.50;;;;;;;4.14;100.00;99520.49;214835;1292;138526;-85
2023/02/01 13:21:07;;;;;;;;;;;;;;;;;;;;;
2023/02/01 13:27:05;;;;;;;16.60;2.80;;;;;;;4.30;100.00;99520.99;214618;1292;138769;-83
2023/02/01 13:33:19;;;;;;;10.20;3.10;;;;;;;4.33;100.00;99520.59;215032;1293;138667;-87
2023/02/01 13:39:27;;;;;;;9.90;3.50;;;;;;;4.35;100.00;99522.98;214663;1293;138687;-87
2023/02/01 13:45:31;;;;;;;8.90;3.10;;;;;;;4.35;100.00;99524.30;215005;1293;138396;-85
2023/02/01 13:51:38;;;;;;;9.80;3.60;;;;;;;4.32;100.00;99515.91;215110;1295;138612;-83
2023/02/01 13:57:39;;;;;;;9.10;2.60;;;;;;;4.31;100.00;99520.16;214564;1291;138596;-83
2023/02/01 14:03:42;;;;;;;;;;;;;;;;;;;;;
2023/02/01 14:10:01;;;;;;;;;;;;;;;;;;;;;
2023/02/01 14:15:59;;;;;;;18.10;3.20;;;;;;;4.34;100.00;99510.80;214880;1294;138564;-81
2023/02/01 14:22:01;;;;;;;9.50;2.10;;;;;;;4.34;100.00;99516.89;214543;1296;138645;-84
2023/02/01 14:46:21;;;;;;;12.40;3.10;;;;;;;4.43;100.00;99505.09;215095;1293;138532;-82
2023/02/01 14:52:22;;;;;;;;;;;;;;;;;;;;;
2023/02/01 14:58:24;;;;;;;18.00;3.20;;;;;;;4.34;100.00;99502.41;213880;1296;139242;-84
2023/02/01 15:04:37;;;;;;;11.60;4.00;;;;;;;4.30;100.00;99507.77;215112;1295;138663;-83
2023/02/01 15:10:45;;;;;;;16.00;2.60;;;;;;;4.27;100.00;99507.55;214749;1293;139842;-84
2023/02/01 15:16:49;;;;;;;;;;;;;;;;;;;;;
2023/02/01 15:22:51;;;;;;;10.30;2.30;;;;;;;4.20;100.00;99505.92;215135;1291;138832;-86
2023/02/01 15:28:47;;;;;;;;;;;;;;;;;;;;;
2023/02/01 15:34:57;;;;;;;11.30;3.00;;;;;;;4.04;100.00;99495.77;215240;1292;138354;-85
2023/02/01 15:41:13;;;;;;;9.90;2.50;;;;;;;4.00;100.00;99500.41;214609;1293;138457;-88
2023/02/01 15:47:17;;;;;;;12.40;2.40;;;;;;;3.93;100.00;99501.20;214529;1294;138579;-83
2023/02/01 15:53:36;;;;;;;12.00;3.90;;;;;;;3.84;100.00;99498.98;215120;1293;138464;-83
2023/02/01 15:59:37;;;;;;;11.10;3.20;;;;;;;3.78;100.00;99506.68;214887;1292;138849;-87
2023/02/01 16:05:38;;;;;;;15.00;4.50;;;;;;;3.75;100.00;99519.77;215400;1293;138369;-87
2023/02/01 16:11:55;;;;;;;9.80;2.90;;;;;;;3.76;100.00;99531.92;215252;1293;139175;-90
2023/02/01 16:17:48;;;;;;;;;;;;;;;;;;;;;
2023/02/01 16:23:59;;;;;;;8.60;2.20;;;;;;;3.74;100.00;99515.77;214579;1292;138633;-83
2023/02/01 16:29:59;;;;;;;10.50;2.10;;;;;;;3.70;100.00;99522.37;214658;1293;138312;-83
2023/02/01 16:36:02;;;;;;;9.50;2.40;;;;;;;3.67;100.00;99516.45;214747;1292;138468;-82
2023/02/01 16:41:53;;;;;;;;;;;;;;;;;;;;;
2023/02/01 16:48:02;;;;;;;10.10;2.80;;;;;;;3.60;100.00;99510.76;214318;1293;139004;-85
2023/02/01 16:54:04;;;;;;;14.00;3.90;;;;;;;3.58;100.00;99511.80;214716;1293;138314;-86
2023/02/01 17:00:05;;;;;;;13.50;4.00;;;;;;;3.56;100.00;99503.77;214329;1292;138517;-83
2023/02/01 17:06:06;;;;;;;11.00;3.80;;;;;;;3.57;100.00;99503.63;214717;1293;138696;-83
2023/02/01 17:12:08;;;;;;;13.10;4.60;;;;;;;3.57;100.00;99503.85;214420;1293;138381;-83
2023/02/01 17:24:16;;;;;;;21.30;7.40;;;;;;;3.57;100.00;99503.47;214761;1292;138506;-83
2023/02/01 17:30:03;;;;;;;;;;;;;;;;;;;;;
2023/02/01 17:36:05;;;;;;;10.00;3.20;;;;;;;3.48;100.00;99499.07;215657;1292;138650;-86
2023/02/01 17:42:05;;;;;;;;;;;;;;;;;;;;;
2023/02/01 17:48:05;;;;;;;;;;;;;;;;;;;;;
2023/02/01 17:54:08;;;;;;;11.70;3.10;;;;;;;3.22;100.00;99473.48;215402;1293;138168;-89
2023/02/01 18:00:10;;;;;;;8.50;2.90;;;;;;;3.12;100.00;99469.89;214900;1294;138418;-88
2023/02/01 18:05:49;;;;;;;;;;;;;;;;;;;;;
2023/02/01 18:11:35;;;;;;;14.20;5.50;;;;;;;2.99;100.00;99458.14;214949;1292;138583;-89
2023/02/01 18:17:36;;;;;;;8.00;3.50;;;;;;;2.95;100.00;99455.85;214367;1293;139252;-86
2023/02/01 18:23:33;;;;;;;11.50;4.00;;;;;;;2.91;100.00;99449.86;215360;1293;138475;-89
2023/02/01 18:29:31;;;;;;;14.30;5.10;;;;;;;2.86;100.00;99441.83;214677;1293;138682;-89
2023/02/01 18:35:33;;;;;;;10.90;4.20;;;;;;;2.82;100.00;99428.04;215218;1293;138498;-91
2023/02/01 18:41:35;;;;;;;7.30;3.10;;;;;;;2.76;100.00;99415.63;215209;1290;139765;-92
2023/02/01 18:47:36;;;;;;;9.10;3.20;;;;;;;2.68;100.00;99419.92;214720;1290;138511;-89
2023/02/01 18:53:38;;;;;;;8.60;3.80;;;;;;;2.64;100.00;99406.95;214985;1291;138171;-88
2023/02/01 18:59:39;;;;;;;14.40;6.10;;;;;;;2.62;100.00;99399.19;214445;1293;138807;-88
2023/02/01 19:05:21;;;;;;;;;;;;;;;;;;;;;
2023/02/01 19:11:23;;;;;;;12.80;5.80;;;;;;;2.58;100.00;99395.45;214475;1293;139263;-88
2023/02/01 19:17:24;;;;;;;21.20;8.40;;;;;;;2.57;100.00;99392.47;214477;1292;138571;-87
2023/02/01 19:23:25;;;;;;;15.50;5.10;;;;;;;2.55;100.00;99395.46;215333;1293;138335;-88
2023/02/01 19:35:27;;;;;;;10.60;4.50;;;;;;;2.48;100.00;99389.76;215233;1292;138342;-86
2023/02/01 19:41:30;;;;;;;18.60;6.10;;;;;;;2.46;100.00;99390.88;215174;1292;139090;-87
2023/02/01 19:47:31;;;;;;;11.50;5.30;;;;;;;2.47;100.00;99396.73;214414;1293;138473;-89
2023/02/01 19:53:24;;;;;;;;;;;;;;;;;;;;;
2023/02/01 19:59:26;;;;;;;16.40;6.50;;;;;;;2.51;100.00;99401.23;214438;1292;138797;-87
2023/02/01 20:05:26;;;;;;;;;;;;;;;;;;;;;
2023/02/01 20:11:27;;;;;;;;;;;;;;;;;;;;;
2023/02/01 20:17:34;;;;;;;15.40;5.70;;;;;;;2.55;100.00;99408.48;214345;1293;139110;-86
2023/02/01 20:23:34;;;;;;;11.40;5.30;;;;;;;2.57;100.00;99408.14;214465;1292;138530;-85
2023/02/01 20:29:36;;;;;;;12.30;5.80;;;;;;;2.58;100.00;99405.23;214139;1293;138801;-86
2023/02/01 20:35:58;;;;;;;12.70;5.40;;;;;;;2.59;100.00;99410.85;214722;1294;138458;-87
2023/02/01 20:41:44;;;;;;;13.20;6.30;;;;;;;2.61;100.00;99418.35;214266;1293;138743;-86
2023/02/01 20:59:48;;;;;;;15.80;5.40;;;;;;;2.70;100.00;99424.56;214192;1293;138620;-86
2023/02/01 21:12:03;;;;;;;18.10;5.60;;;;;;;2.79;100.00;99428.20;214408;1295;140208;-85
2023/02/01 21:18:05;;;;;;;12.70;4.80;;;;;;;2.84;100.00;99426.62;213929;1293;138899;-88
2023/02/01 21:24:06;;;;;;;10.00;4.30;;;;;;;2.90;100.00;99429.80;214230;1293;138387;-85
2023/02/01 21:30:07;;;;;;;12.50;3.30;;;;;;;2.95;100.00;99437.85;214132;1290;138572;-87
2023/02/01 21:36:06;;;;;;;;;;;;;;;;;;;;;
2023/02/01 21:48:01;;;;;;;;;;;;;;;;;;;;;
2023/02/01 21:54:11;;;;;;;9.80;3.10;;;;;;;3.06;100.00;99469.42;214891;1293;138941;-88
2023/02/01 22:00:13;;;;;;;16.20;4.10;;;;;;;3.07;100.00;99469.30;214126;1293;138460;-85
2023/02/01 22:06:13;;;;;;;12.50;3.10;;;;;;;3.10;100.00;99477.52;214927;1296;138351;-86
2023/02/01 22:12:14;;;;;;;13.20;3.30;;;;;;;3.12;100.00;99477.11;210838;1293;5378011;-87
2023/02/01 22:18:23;;;;;;;9.80;3.20;;;;;;;3.14;100.00;99478.71;214387;1293;138822;-86
2023/02/01 22:24:22;;;;;;;;;;;;;;;;;;;;;
2023/02/01 22:30:26;;;;;;;12.20;3.60;;;;;;;3.18;100.00;99492.80;215880;1292;138680;-89
2023/02/01 22:36:30;;;;;;;17.60;3.40;;;;;;;3.19;100.00;99495.24;215506;1288;139662;-89
2023/02/01 22:42:31;;;;;;;17.90;3.40;;;;;;;3.22;100.00;99494.62;217965;1289;138177;-89
2023/02/01 22:48:24;;;;;;;;;;;;;;;;;;;;;
2023/02/01 22:54:33;;;;;;;17.00;3.20;;;;;;;3.27;100.00;99490.54;215812;1292;138376;-90
2023/02/01 23:00:35;;;;;;;15.70;2.80;;;;;;;3.28;100.00;99489.25;215233;1289;139957;-90
2023/02/01 23:06:36;;;;;;;16.70;3.20;;;;;;;3.29;100.00;99497.58;215300;1289;138712;-88
2023/02/01 23:18:38;;;;;;;19.80;3.80;;;;;;;3.33;100.00;99502.73;215562;1291;138522;-89
2023/02/01 23:24:39;;;;;;;16.40;3.20;;;;;;;3.35;100.00;99503.73;215845;1290;138224;-86
2023/02/01 23:30:40;;;;;;;17.40;3.30;;;;;;;3.38;100.00;99500.52;215180;1290;138703;-89
2023/02/01 23:43:56;;;;;;;28.50;4.60;;;;;;;3.41;100.00;99494.55;215821;1290;138243;-86
2023/02/01 23:48:44;;;;;;;16.10;3.40;;;;;;;3.42;100.00;99493.55;215392;1287;139139;-87
